createdAt,value
2019-05-06T00:00:26.532Z,81.84
2019-05-06T00:02:55.961Z,82.15
2019-05-06T00:05:27.028Z,82.40
2019-05-06T00:07:56.685Z,82.41
2019-05-06T00:10:28.656Z,82.55
2019-05-06T00:12:58.519Z,82.32
2019-05-06T00:15:28.278Z,82.56
2019-05-06T00:17:58.149Z,82.28
2019-05-06T00:20:27.663Z,82.51
2019-05-06T00:22:58.726Z,82.76
2019-05-06T00:25:29.804Z,83.42
2019-05-06T00:30:50.184Z,83.71
2019-05-06T00:33:19.751Z,83.60
2019-05-06T00:35:49.242Z,83.70
2019-05-06T00:38:18.632Z,83.37
2019-05-06T00:40:50.045Z,83.82
2019-05-06T00:43:19.455Z,85.70
2019-05-06T00:45:48.887Z,85.35
2019-05-06T00:48:18.283Z,85.03
2019-05-06T00:50:47.995Z,84.65
2019-05-06T00:53:23.805Z,84.61
2019-05-06T00:55:53.833Z,84.43
2019-05-06T00:58:23.956Z,84.29
2019-05-06T01:00:53.967Z,84.22
2019-05-06T01:03:24.040Z,84.05
2019-05-06T01:05:54.382Z,83.33
2019-05-06T01:08:24.302Z,82.98
2019-05-06T01:10:54.481Z,82.19
2019-05-06T01:13:31.895Z,82.34
2019-05-06T01:16:01.334Z,82.48
2019-05-06T01:18:30.987Z,82.66
2019-05-06T01:21:14.502Z,82.79
2019-05-06T01:23:45.044Z,82.60
2019-05-06T01:26:16.418Z,82.40
2019-05-06T01:28:46.128Z,82.58
2019-05-06T01:31:15.940Z,82.43
2019-05-06T01:33:45.753Z,82.76
2019-05-06T01:36:16.640Z,82.74
2019-05-06T01:39:04.389Z,82.65
2019-05-06T01:41:38.295Z,82.60
2019-05-06T01:44:07.746Z,82.54
2019-05-06T01:46:37.175Z,82.49
2019-05-06T01:49:06.946Z,81.87
2019-05-06T01:51:36.453Z,81.48
2019-05-06T01:54:06.095Z,80.86
2019-05-06T01:56:35.667Z,80.71
2019-05-06T01:59:05.334Z,80.34
2019-05-06T02:01:34.854Z,80.84
2019-05-06T02:04:04.617Z,80.50
2019-05-06T02:06:34.695Z,80.25
2019-05-06T02:09:08.536Z,80.20
2019-05-06T02:11:38.133Z,80.41
2019-05-06T02:14:07.719Z,80.39
2019-05-06T02:16:37.100Z,79.61
2019-05-06T02:19:06.648Z,80.20
2019-05-06T02:21:38.092Z,79.84
2019-05-06T02:24:24.345Z,80.11
2019-05-06T02:26:54.385Z,79.92
2019-05-06T02:29:34.155Z,79.70
2019-05-06T02:32:26.003Z,79.66
2019-05-06T02:34:54.653Z,79.95
2019-05-06T02:37:25.979Z,79.87
2019-05-06T02:39:55.423Z,79.08
2019-05-06T02:42:24.857Z,79.20
2019-05-06T02:44:54.684Z,78.44
2019-05-06T02:47:26.369Z,78.71
2019-05-06T02:50:04.161Z,79.52
2019-05-06T02:52:32.991Z,78.84
2019-05-06T02:55:06.353Z,79.16
2019-05-06T02:57:35.312Z,78.57
2019-05-06T03:00:13.080Z,78.77
2019-05-06T03:02:44.900Z,78.79
2019-05-06T03:05:13.201Z,78.31
2019-05-06T03:07:43.679Z,78.51
2019-05-06T03:10:17.580Z,79.09
2019-05-06T03:12:47.105Z,78.34
2019-05-06T03:15:18.166Z,78.55
2019-05-06T03:17:47.894Z,79.14
2019-05-06T03:20:36.931Z,79.30
2019-05-06T03:23:09.504Z,79.33
2019-05-06T03:25:43.744Z,79.72
2019-05-06T03:28:13.229Z,79.02
2019-05-06T03:30:45.773Z,79.42
2019-05-06T03:33:37.915Z,79.28
2019-05-06T03:36:00.762Z,79.48
2019-05-06T03:38:16.529Z,78.96
2019-05-06T03:40:46.185Z,78.14
2019-05-06T03:43:16.102Z,79.04
2019-05-06T03:45:53.811Z,79.20
2019-05-06T03:48:27.897Z,79.39
2019-05-06T03:50:57.337Z,78.93
2019-05-06T03:53:28.518Z,78.58
2019-05-06T03:55:58.593Z,78.38
2019-05-06T03:58:28.323Z,78.91
2019-05-06T04:00:58.557Z,78.57
2019-05-06T04:03:42.732Z,78.73
2019-05-06T04:06:04.491Z,78.50
2019-05-06T04:08:34.451Z,78.64
2019-05-06T04:11:04.339Z,78.76
2019-05-06T04:13:34.931Z,78.59
2019-05-06T04:16:08.160Z,78.59
2019-05-06T04:18:43.861Z,78.65
2019-05-06T04:21:24.772Z,78.53
2019-05-06T04:24:13.849Z,79.33
2019-05-06T04:26:46.438Z,79.87
2019-05-06T04:29:16.689Z,79.52
2019-05-06T04:31:47.889Z,79.19
2019-05-06T04:34:19.838Z,79.39
2019-05-06T04:36:49.590Z,79.11
2019-05-06T04:39:23.057Z,79.06
2019-05-06T04:41:53.606Z,78.67
2019-05-06T04:44:23.937Z,79.16
2019-05-06T04:46:54.515Z,78.69
2019-05-06T04:49:24.085Z,78.42
2019-05-06T04:51:54.264Z,78.17
2019-05-06T04:54:26.570Z,78.06
2019-05-06T04:56:56.182Z,78.02
2019-05-06T04:59:25.777Z,78.16
2019-05-06T05:01:56.989Z,77.76
2019-05-06T05:04:32.299Z,77.38
2019-05-06T05:06:57.613Z,77.60
2019-05-06T05:09:27.972Z,77.00
2019-05-06T05:11:59.172Z,76.62
2019-05-06T05:14:32.764Z,75.78
2019-05-06T05:17:04.065Z,75.90
2019-05-06T05:19:33.827Z,75.33
2019-05-06T05:22:06.563Z,74.84
2019-05-06T05:24:37.369Z,74.49
2019-05-06T05:27:07.369Z,74.31
2019-05-06T05:29:37.086Z,74.75
2019-05-06T05:32:06.521Z,74.30
2019-05-06T05:34:40.659Z,72.68
2019-05-06T05:37:07.494Z,71.20
2019-05-06T05:39:36.964Z,71.27
2019-05-06T05:42:22.113Z,71.53
2019-05-06T05:44:52.985Z,72.09
2019-05-06T05:47:24.073Z,73.13
2019-05-06T05:50:04.577Z,69.98
2019-05-06T05:52:34.297Z,68.75
2019-05-06T05:55:05.693Z,69.30
2019-05-06T05:57:35.318Z,69.82
2019-05-06T06:00:05.735Z,70.01
2019-05-06T06:02:35.460Z,70.53
2019-05-06T06:05:06.734Z,71.83
2019-05-06T06:07:36.493Z,73.40
2019-05-06T06:10:08.171Z,76.06
2019-05-06T06:12:37.747Z,76.58
2019-05-06T06:15:09.047Z,76.64
2019-05-06T06:17:43.345Z,77.24
2019-05-06T06:20:32.740Z,78.44
2019-05-06T06:23:03.971Z,78.19
2019-05-06T06:25:33.694Z,78.39
2019-05-06T06:28:03.794Z,78.64
2019-05-06T06:30:37.702Z,78.72
2019-05-06T06:33:07.209Z,77.89
2019-05-06T06:35:53.369Z,76.22
2019-05-06T06:38:27.118Z,74.73
2019-05-06T06:40:56.591Z,74.37
2019-05-06T06:43:27.233Z,74.11
2019-05-06T06:45:59.546Z,70.79
2019-05-06T06:48:28.977Z,70.88
2019-05-06T06:50:58.436Z,71.34
2019-05-06T06:53:27.965Z,71.23
2019-05-06T06:56:05.174Z,70.31
2019-05-06T06:58:37.183Z,72.58
2019-05-06T07:01:23.489Z,75.33
2019-05-06T07:03:55.543Z,75.30
2019-05-06T07:06:26.719Z,76.48
2019-05-06T07:08:56.714Z,76.18
2019-05-06T07:11:26.108Z,76.08
2019-05-06T07:13:56.007Z,75.77
2019-05-06T07:16:25.408Z,75.04
2019-05-06T07:18:55.010Z,75.30
2019-05-06T07:21:29.603Z,75.16
2019-05-06T07:23:59.060Z,75.20
2019-05-06T07:26:31.772Z,75.79
2019-05-06T07:29:03.961Z,74.00
2019-05-06T07:31:33.051Z,73.74
2019-05-06T07:34:02.683Z,72.50
2019-05-06T07:36:32.328Z,70.60
2019-05-06T07:39:04.013Z,70.04
2019-05-06T07:41:46.527Z,71.81
2019-05-06T07:44:22.445Z,75.23
2019-05-06T07:46:56.495Z,76.28
2019-05-06T07:49:26.227Z,75.34
2019-05-06T07:51:55.657Z,76.40
2019-05-06T07:54:25.052Z,77.02
2019-05-06T07:56:54.611Z,75.39
2019-05-06T07:59:24.314Z,75.50
2019-05-06T08:01:54.931Z,74.18
2019-05-06T08:04:24.464Z,72.05
2019-05-06T08:06:54.000Z,70.95
2019-05-06T08:09:23.391Z,71.19
2019-05-06T08:11:53.177Z,71.81
2019-05-06T08:14:24.240Z,71.19
2019-05-06T08:17:02.273Z,72.35
2019-05-06T08:19:33.631Z,68.99
2019-05-06T08:22:05.412Z,69.56
2019-05-06T08:24:35.402Z,70.12
2019-05-06T08:27:04.925Z,69.19
2019-05-06T08:29:34.479Z,66.53
2019-05-06T08:32:03.964Z,67.72
2019-05-06T08:34:34.368Z,66.55
2019-05-06T08:37:08.437Z,61.38
2019-05-06T08:39:37.882Z,60.24
2019-05-06T08:42:07.398Z,63.01
2019-05-06T08:44:36.900Z,63.21
2019-05-06T08:47:06.491Z,64.15
2019-05-06T08:49:54.390Z,63.07
2019-05-06T08:52:27.237Z,61.75
2019-05-06T08:55:04.337Z,61.36
2019-05-06T08:57:33.166Z,61.04
2019-05-06T09:00:03.385Z,63.10
2019-05-06T09:02:33.152Z,63.84
2019-05-06T09:05:03.052Z,64.96
2019-05-06T09:07:34.060Z,66.08
2019-05-06T09:10:05.639Z,65.78
2019-05-06T09:12:35.074Z,65.25
2019-05-06T09:15:05.692Z,66.37
2019-05-06T09:17:35.117Z,64.96
2019-05-06T09:20:07.293Z,65.47
2019-05-06T09:22:36.728Z,65.34
2019-05-06T09:25:09.656Z,65.25
2019-05-06T09:27:49.633Z,62.03
2019-05-06T09:30:37.724Z,61.58
2019-05-06T09:33:07.624Z,62.04
2019-05-06T09:35:37.351Z,62.83
2019-05-06T09:38:06.945Z,62.55
2019-05-06T09:40:38.174Z,61.75
2019-05-06T09:43:07.665Z,62.25
2019-05-06T09:45:37.103Z,61.18
2019-05-06T09:48:08.311Z,62.44
2019-05-06T09:50:45.416Z,63.15
2019-05-06T09:53:14.019Z,62.13
2019-05-06T09:56:13.026Z,63.06
2019-05-06T09:58:43.365Z,63.34
2019-05-06T10:01:13.667Z,64.21
2019-05-06T10:03:43.196Z,63.27
2019-05-06T10:06:13.245Z,65.34
2019-05-06T10:08:42.809Z,63.65
2019-05-06T10:11:12.319Z,64.90
2019-05-06T10:13:43.127Z,64.90
2019-05-06T10:16:13.143Z,65.53
2019-05-06T10:18:42.794Z,63.75
2019-05-06T10:21:12.596Z,61.46
2019-05-06T10:23:42.509Z,62.08
2019-05-06T10:26:12.970Z,63.00
2019-05-06T10:31:32.713Z,64.57
2019-05-06T10:34:13.842Z,63.72
2019-05-06T10:37:19.058Z,64.17
2019-05-06T10:39:58.033Z,61.22
2019-05-06T10:42:39.686Z,61.89
2019-05-06T10:45:12.480Z,60.91
2019-05-06T10:47:42.402Z,61.51
2019-05-06T10:50:13.539Z,62.25
2019-05-06T10:53:02.730Z,58.79
2019-05-06T10:55:32.598Z,56.48
2019-05-06T10:58:02.776Z,55.48
2019-05-06T11:00:33.164Z,56.41
2019-05-06T11:03:14.873Z,57.13
2019-05-06T11:05:44.660Z,54.87
2019-05-06T11:08:14.575Z,55.80
2019-05-06T11:10:45.498Z,57.65
2019-05-06T11:13:16.042Z,56.54
2019-05-06T11:15:45.624Z,57.69
2019-05-06T11:18:15.137Z,56.92
2019-05-06T11:20:44.535Z,59.51
2019-05-06T11:23:14.462Z,58.47
2019-05-06T11:25:43.959Z,59.10
2019-05-06T11:28:35.028Z,59.10
2019-05-06T11:31:04.673Z,60.16
2019-05-06T11:33:52.620Z,60.84
2019-05-06T11:36:23.830Z,60.10
2019-05-06T11:38:53.263Z,59.14
2019-05-06T11:41:23.381Z,57.96
2019-05-06T11:43:53.024Z,58.86
2019-05-06T11:46:24.081Z,57.62
2019-05-06T11:48:54.226Z,57.06
2019-05-06T11:51:25.495Z,58.50
2019-05-06T11:53:54.922Z,59.59
2019-05-06T11:56:24.395Z,60.80
2019-05-06T11:58:55.546Z,60.09
2019-05-06T12:01:29.196Z,60.17
2019-05-06T12:03:58.630Z,61.94
2019-05-06T12:06:28.039Z,61.92
2019-05-06T12:08:57.974Z,61.81
2019-05-06T12:11:27.440Z,62.55
2019-05-06T12:13:56.865Z,64.63
2019-05-06T12:16:26.571Z,65.10
2019-05-06T12:18:59.500Z,67.94
2019-05-06T12:21:28.734Z,67.83
2019-05-06T12:23:58.243Z,68.70
2019-05-06T12:26:27.641Z,70.06
2019-05-06T12:28:57.049Z,69.33
2019-05-06T12:31:26.456Z,68.47
2019-05-06T12:33:56.027Z,66.53
2019-05-06T12:36:25.665Z,64.29
2019-05-06T12:39:17.679Z,62.45
2019-05-06T12:42:04.576Z,61.55
2019-05-06T12:44:35.784Z,57.96
2019-05-06T12:47:25.487Z,57.74
2019-05-06T12:49:54.943Z,56.20
2019-05-06T12:52:24.347Z,56.45
2019-05-06T12:55:00.402Z,54.73
2019-05-06T12:57:25.034Z,54.60
2019-05-06T12:59:54.552Z,54.48
2019-05-06T13:02:24.060Z,55.38
2019-05-06T13:04:59.708Z,56.44
2019-05-06T13:07:26.359Z,55.23
2019-05-06T13:09:56.176Z,55.77
2019-05-06T13:12:27.362Z,55.22
2019-05-06T13:14:57.238Z,56.70
2019-05-06T13:17:28.351Z,57.65
2019-05-06T13:19:58.119Z,57.96
2019-05-06T13:22:29.353Z,59.71
2019-05-06T13:24:58.810Z,57.80
2019-05-06T13:27:32.784Z,60.60
2019-05-06T13:30:02.591Z,62.15
2019-05-06T13:32:33.995Z,63.90
2019-05-06T13:35:03.710Z,64.65
2019-05-06T13:37:33.712Z,63.86
2019-05-06T13:40:04.354Z,65.25
2019-05-06T13:42:35.799Z,65.90
2019-05-06T13:45:07.149Z,64.17
2019-05-06T13:47:47.325Z,64.40
2019-05-06T13:50:18.528Z,64.09
2019-05-06T13:53:07.231Z,63.55
2019-05-06T13:55:22.059Z,61.98
2019-05-06T13:57:52.382Z,61.01
2019-05-06T14:00:22.537Z,60.04
2019-05-06T14:02:56.507Z,57.71
2019-05-06T14:05:26.571Z,57.75
2019-05-06T14:07:56.176Z,58.41
2019-05-06T14:10:27.297Z,57.99
2019-05-06T14:12:56.744Z,59.17
2019-05-06T14:15:26.221Z,57.07
2019-05-06T14:17:55.648Z,57.18
2019-05-06T14:20:25.219Z,57.22
2019-05-06T14:22:54.709Z,59.06
2019-05-06T14:25:28.480Z,56.70
2019-05-06T14:27:59.688Z,57.07
2019-05-06T14:30:33.539Z,55.68
2019-05-06T14:33:03.347Z,56.70
2019-05-06T14:35:34.238Z,57.63
2019-05-06T14:38:03.782Z,59.17
2019-05-06T14:40:34.970Z,58.42
2019-05-06T14:43:05.180Z,59.27
2019-05-06T14:45:34.818Z,62.98
2019-05-06T14:48:04.356Z,61.10
2019-05-06T14:50:45.089Z,59.31
2019-05-06T14:53:05.276Z,58.08
2019-05-06T14:55:36.411Z,57.90
2019-05-06T14:58:06.679Z,58.92
2019-05-06T15:00:36.408Z,60.26
2019-05-06T15:03:07.492Z,57.91
2019-05-06T15:05:37.012Z,57.03
2019-05-06T15:08:06.403Z,59.16
2019-05-06T15:10:35.902Z,58.91
2019-05-06T15:13:05.290Z,58.32
2019-05-06T15:15:35.084Z,59.46
2019-05-06T15:18:04.755Z,58.30
2019-05-06T15:20:34.368Z,57.24
2019-05-06T15:23:04.583Z,57.88
2019-05-06T15:25:34.128Z,56.34
2019-05-06T15:28:03.747Z,56.55
2019-05-06T15:30:52.456Z,58.66
2019-05-06T15:33:23.023Z,56.76
2019-05-06T15:36:06.042Z,57.01
2019-05-06T15:38:35.503Z,57.37
2019-05-06T15:41:05.095Z,59.03
2019-05-06T15:43:34.499Z,58.24
2019-05-06T15:46:04.089Z,55.29
2019-05-06T15:48:33.495Z,56.42
2019-05-06T15:51:02.909Z,55.21
2019-05-06T15:53:33.215Z,55.45
2019-05-06T15:56:02.859Z,53.78
2019-05-06T15:58:32.882Z,54.00
2019-05-06T16:01:03.333Z,54.68
2019-05-06T16:03:33.567Z,55.03
2019-05-06T16:06:03.117Z,55.94
2019-05-06T16:08:32.528Z,55.43
2019-05-06T16:11:02.877Z,58.25
2019-05-06T16:13:32.408Z,57.94
2019-05-06T16:16:02.938Z,55.54
2019-05-06T16:18:33.138Z,55.51
2019-05-06T16:21:03.028Z,55.27
2019-05-06T16:23:37.070Z,57.52
2019-05-06T16:26:06.505Z,56.10
2019-05-06T16:28:35.974Z,55.99
2019-05-06T16:31:05.399Z,57.13
2019-05-06T16:33:34.869Z,55.69
2019-05-06T16:36:04.630Z,53.72
2019-05-06T16:38:34.057Z,54.25
2019-05-06T16:41:12.825Z,54.79
2019-05-06T16:43:35.902Z,55.52
2019-05-06T16:46:05.424Z,52.75
2019-05-06T16:48:34.864Z,53.09
2019-05-06T16:51:04.855Z,54.42
2019-05-06T16:53:35.228Z,54.41
2019-05-06T16:56:09.830Z,55.31
2019-05-06T16:58:45.078Z,53.85
2019-05-06T17:01:14.930Z,53.44
2019-05-06T17:03:45.330Z,53.35
2019-05-06T17:06:16.947Z,53.81
2019-05-06T17:08:46.388Z,54.39
2019-05-06T17:11:26.838Z,54.76
2019-05-06T17:13:47.684Z,55.86
2019-05-06T17:16:18.943Z,56.10
2019-05-06T17:18:48.340Z,56.15
2019-05-06T17:21:18.193Z,55.14
2019-05-06T17:23:47.659Z,55.83
2019-05-06T17:26:18.580Z,56.89
2019-05-06T17:28:52.496Z,57.88
2019-05-06T17:31:26.071Z,57.05
2019-05-06T17:33:59.835Z,58.26
2019-05-06T17:36:33.658Z,58.81
2019-05-06T17:39:04.891Z,59.74
2019-05-06T17:41:44.510Z,60.33
2019-05-06T17:44:06.224Z,60.96
2019-05-06T17:46:37.659Z,61.06
2019-05-06T17:49:08.737Z,59.69
2019-05-06T17:51:39.833Z,59.25
2019-05-06T17:54:12.198Z,60.62
2019-05-06T17:56:41.901Z,60.83
2019-05-06T17:59:11.435Z,60.83
2019-05-06T18:01:42.715Z,59.71
2019-05-06T18:04:12.669Z,60.49
2019-05-06T18:06:42.617Z,60.49
2019-05-06T18:09:12.808Z,60.98
2019-05-06T18:11:43.892Z,61.37
2019-05-06T18:14:13.523Z,59.75
2019-05-06T18:16:42.945Z,59.37
2019-05-06T18:19:13.949Z,59.07
2019-05-06T18:21:43.426Z,60.24
2019-05-06T18:24:14.343Z,61.60
2019-05-06T18:26:43.744Z,62.69
2019-05-06T18:29:13.217Z,64.03
2019-05-06T18:31:42.942Z,62.67
2019-05-06T18:34:13.332Z,62.92
2019-05-06T18:36:43.065Z,60.92
2019-05-06T18:39:12.768Z,60.16
2019-05-06T18:41:42.224Z,60.54
2019-05-06T18:44:12.074Z,62.21
2019-05-06T18:46:42.168Z,61.87
2019-05-06T18:49:13.038Z,62.13
2019-05-06T18:51:42.833Z,63.70
2019-05-06T18:54:12.625Z,63.71
2019-05-06T18:56:42.986Z,64.46
2019-05-06T18:59:12.738Z,64.14
2019-05-06T19:01:43.417Z,65.79
2019-05-06T19:04:14.690Z,65.95
2019-05-06T19:06:44.187Z,66.82
2019-05-06T19:09:19.686Z,67.39
2019-05-06T19:11:51.933Z,67.38
2019-05-06T19:14:21.901Z,67.64
2019-05-06T19:16:52.925Z,68.87
2019-05-06T19:19:35.109Z,69.15
2019-05-06T19:22:04.556Z,69.59
2019-05-06T19:24:33.980Z,69.85
2019-05-06T19:27:03.480Z,71.03
2019-05-06T19:29:33.360Z,71.01
2019-05-06T19:32:03.161Z,71.75
2019-05-06T19:34:35.233Z,71.17
2019-05-06T19:37:03.774Z,71.72
2019-05-06T19:39:33.497Z,71.91
2019-05-06T19:42:05.183Z,72.34
2019-05-06T19:44:34.282Z,73.05
2019-05-06T19:47:03.688Z,73.61
2019-05-06T19:49:33.144Z,75.22
2019-05-06T19:52:03.201Z,74.99
2019-05-06T19:54:34.410Z,75.46
2019-05-06T19:57:03.854Z,75.99
2019-05-06T19:59:34.263Z,76.25
2019-05-06T20:02:05.173Z,77.02
2019-05-06T20:04:35.720Z,77.13
2019-05-06T20:07:07.118Z,77.49
2019-05-06T20:09:52.266Z,77.72
2019-05-06T20:12:26.292Z,78.61
2019-05-06T20:14:57.733Z,78.22
2019-05-06T20:17:27.165Z,78.56
2019-05-06T20:19:57.052Z,79.22
2019-05-06T20:22:26.508Z,79.33
2019-05-06T20:24:55.956Z,79.44
2019-05-06T20:27:25.386Z,79.56
2019-05-06T20:29:54.784Z,79.55
2019-05-06T20:32:24.226Z,79.53
2019-05-06T20:34:53.621Z,79.88
2019-05-06T20:37:23.056Z,80.08
2019-05-06T20:39:52.443Z,80.36
2019-05-06T20:42:22.271Z,80.45
2019-05-06T20:44:52.451Z,80.85
2019-05-06T20:47:22.081Z,80.68
2019-05-06T20:49:52.644Z,80.55
2019-05-06T20:52:22.988Z,80.66
2019-05-06T20:54:52.570Z,80.70
2019-05-06T20:57:23.069Z,81.25
2019-05-06T20:59:52.733Z,80.95
2019-05-06T21:02:25.686Z,81.39
2019-05-06T21:04:53.324Z,81.65
2019-05-06T21:07:23.172Z,81.86
2019-05-06T21:09:54.244Z,81.60
2019-05-06T21:12:23.667Z,81.50
2019-05-06T21:14:53.057Z,81.76
2019-05-06T21:17:22.992Z,81.86
2019-05-06T21:19:52.448Z,82.09
2019-05-06T21:22:23.517Z,82.30
2019-05-06T21:24:52.938Z,82.61
2019-05-06T21:27:23.049Z,82.42
2019-05-06T21:29:52.883Z,82.60
2019-05-06T21:32:22.336Z,83.03
2019-05-06T21:34:52.550Z,83.04
2019-05-06T21:37:22.983Z,83.03
2019-05-06T21:39:53.027Z,83.11
2019-05-06T21:42:24.087Z,83.15
2019-05-06T21:44:53.701Z,83.07
2019-05-06T21:47:23.104Z,83.03
2019-05-06T21:49:52.929Z,83.08
2019-05-06T21:52:35.806Z,83.14
2019-05-06T21:54:53.473Z,83.35
2019-05-06T21:57:22.858Z,83.31
2019-05-06T21:59:52.656Z,83.53
2019-05-06T22:02:23.593Z,83.66
2019-05-06T22:04:55.650Z,83.75
2019-05-06T22:07:24.141Z,83.74
2019-05-06T22:09:53.567Z,83.91
2019-05-06T22:12:24.552Z,84.05
2019-05-06T22:14:54.188Z,84.04
2019-05-06T22:17:23.641Z,84.17
2019-05-06T22:19:53.073Z,84.18
2019-05-06T22:22:25.361Z,84.24
2019-05-06T22:24:57.611Z,84.01
2019-05-06T22:27:27.614Z,83.87
2019-05-06T22:29:57.046Z,84.02
2019-05-06T22:32:26.443Z,83.89
2019-05-06T22:34:55.853Z,83.91
2019-05-06T22:37:25.261Z,84.38
2019-05-06T22:39:54.694Z,84.14
2019-05-06T22:42:24.950Z,84.26
2019-05-06T22:44:54.592Z,84.34
2019-05-06T22:47:24.002Z,84.62
2019-05-06T22:49:54.307Z,84.46
2019-05-06T22:52:23.891Z,84.64
2019-05-06T22:54:53.312Z,84.50
2019-05-06T22:57:23.515Z,84.55
2019-05-06T22:59:54.985Z,84.33
2019-05-06T23:02:28.997Z,84.31
2019-05-06T23:05:04.340Z,84.44
2019-05-06T23:07:35.018Z,84.51
2019-05-06T23:10:06.647Z,84.55
2019-05-06T23:12:36.275Z,84.50
2019-05-06T23:15:08.028Z,84.48
2019-05-06T23:17:37.472Z,84.68
2019-05-06T23:20:07.544Z,84.37
2019-05-06T23:22:37.704Z,84.23
2019-05-06T23:25:07.275Z,84.19
2019-05-06T23:27:36.756Z,84.25
2019-05-06T23:30:09.611Z,84.26
2019-05-06T23:32:39.118Z,84.24
2019-05-06T23:35:08.671Z,84.37
2019-05-06T23:38:14.328Z,84.32
2019-05-06T23:41:21.884Z,84.67
2019-05-06T23:44:27.507Z,85.35
2019-05-06T23:47:34.311Z,85.81
2019-05-06T23:50:42.711Z,85.76
2019-05-06T23:53:48.299Z,85.92
2019-05-06T23:56:47.557Z,85.32
2019-05-06T23:59:18.172Z,85.15
